sensor_id;sensor_type;location;lat;lon;timestamp;P1;durP1;ratioP1;P2;durP2;ratioP2
71610;SDS011;59459;51.172;6.682;2023-08-17T00:01:22;9.95;;;4.85;;
71610;SDS011;59459;51.172;6.682;2023-08-17T00:03:48;8.43;;;4.53;;
71610;SDS011;59459;51.172;6.682;2023-08-17T00:06:13;10.47;;;5.53;;
71610;SDS011;59459;51.172;6.682;2023-08-17T00:08:38;10.23;;;5.67;;
71610;SDS011;59459;51.172;6.682;2023-08-17T00:11:03;9.73;;;5.40;;
71610;SDS011;59459;51.172;6.682;2023-08-17T00:13:29;11.53;;;5.17;;
71610;SDS011;59459;51.172;6.682;2023-08-17T00:15:54;10.13;;;5.80;;
71610;SDS011;59459;51.172;6.682;2023-08-17T00:18:19;10.27;;;5.63;;
71610;SDS011;59459;51.172;6.682;2023-08-17T00:20:44;11.77;;;6.60;;
71610;SDS011;59459;51.172;6.682;2023-08-17T00:23:10;10.70;;;6.13;;
71610;SDS011;59459;51.172;6.682;2023-08-17T00:25:35;10.63;;;6.55;;
71610;SDS011;59459;51.172;6.682;2023-08-17T00:28:00;9.83;;;5.87;;
71610;SDS011;59459;51.172;6.682;2023-08-17T00:30:25;10.13;;;6.23;;
71610;SDS011;59459;51.172;6.682;2023-08-17T00:32:51;10.40;;;5.33;;
71610;SDS011;59459;51.172;6.682;2023-08-17T00:35:16;10.13;;;5.37;;
71610;SDS011;59459;51.172;6.682;2023-08-17T00:37:41;10.30;;;5.73;;
71610;SDS011;59459;51.172;6.682;2023-08-17T00:40:06;9.47;;;6.13;;
71610;SDS011;59459;51.172;6.682;2023-08-17T00:42:32;10.70;;;5.90;;
71610;SDS011;59459;51.172;6.682;2023-08-17T00:44:57;11.70;;;6.30;;
71610;SDS011;59459;51.172;6.682;2023-08-17T00:47:22;13.50;;;6.20;;
71610;SDS011;59459;51.172;6.682;2023-08-17T00:49:47;13.10;;;6.70;;
71610;SDS011;59459;51.172;6.682;2023-08-17T00:52:12;10.67;;;5.70;;
71610;SDS011;59459;51.172;6.682;2023-08-17T00:54:38;12.43;;;5.87;;
71610;SDS011;59459;51.172;6.682;2023-08-17T00:57:03;11.43;;;5.87;;
71610;SDS011;59459;51.172;6.682;2023-08-17T00:59:31;10.80;;;5.70;;
71610;SDS011;59459;51.172;6.682;2023-08-17T01:01:57;10.45;;;5.45;;
71610;SDS011;59459;51.172;6.682;2023-08-17T01:04:22;10.20;;;6.53;;
71610;SDS011;59459;51.172;6.682;2023-08-17T01:06:47;12.97;;;6.57;;
71610;SDS011;59459;51.172;6.682;2023-08-17T01:09:12;11.63;;;6.13;;
71610;SDS011;59459;51.172;6.682;2023-08-17T01:11:44;12.67;;;6.33;;
71610;SDS011;59459;51.172;6.682;2023-08-17T01:14:11;10.55;;;6.18;;
71610;SDS011;59459;51.172;6.682;2023-08-17T01:16:42;10.52;;;5.43;;
71610;SDS011;59459;51.172;6.682;2023-08-17T01:19:09;10.27;;;5.88;;
71610;SDS011;59459;51.172;6.682;2023-08-17T01:21:44;10.00;;;6.75;;
71610;SDS011;59459;51.172;6.682;2023-08-17T01:24:10;9.00;;;5.33;;
71610;SDS011;59459;51.172;6.682;2023-08-17T01:26:36;10.00;;;5.63;;
71610;SDS011;59459;51.172;6.682;2023-08-17T01:29:01;11.80;;;5.90;;
71610;SDS011;59459;51.172;6.682;2023-08-17T01:33:57;9.98;;;5.90;;
71610;SDS011;59459;51.172;6.682;2023-08-17T01:36:28;10.57;;;5.35;;
71610;SDS011;59459;51.172;6.682;2023-08-17T01:38:57;9.25;;;5.25;;
71610;SDS011;59459;51.172;6.682;2023-08-17T01:41:24;11.10;;;5.77;;
71610;SDS011;59459;51.172;6.682;2023-08-17T01:43:50;13.13;;;5.45;;
71610;SDS011;59459;51.172;6.682;2023-08-17T01:46:16;10.70;;;5.55;;
71610;SDS011;59459;51.172;6.682;2023-08-17T01:48:42;11.43;;;5.15;;
71610;SDS011;59459;51.172;6.682;2023-08-17T01:51:07;9.07;;;5.53;;
71610;SDS011;59459;51.172;6.682;2023-08-17T01:53:33;10.70;;;5.17;;
71610;SDS011;59459;51.172;6.682;2023-08-17T01:55:58;9.17;;;5.50;;
71610;SDS011;59459;51.172;6.682;2023-08-17T01:58:23;9.50;;;4.73;;
71610;SDS011;59459;51.172;6.682;2023-08-17T02:00:48;10.10;;;5.17;;
71610;SDS011;59459;51.172;6.682;2023-08-17T02:03:14;10.10;;;5.03;;
71610;SDS011;59459;51.172;6.682;2023-08-17T02:05:43;9.03;;;4.77;;
71610;SDS011;59459;51.172;6.682;2023-08-17T02:08:08;9.45;;;4.93;;
71610;SDS011;59459;51.172;6.682;2023-08-17T02:10:34;9.57;;;4.80;;
71610;SDS011;59459;51.172;6.682;2023-08-17T02:12:59;10.40;;;5.53;;
71610;SDS011;59459;51.172;6.682;2023-08-17T02:15:24;12.33;;;5.43;;
71610;SDS011;59459;51.172;6.682;2023-08-17T02:17:49;9.90;;;4.87;;
71610;SDS011;59459;51.172;6.682;2023-08-17T02:20:14;9.90;;;4.80;;
71610;SDS011;59459;51.172;6.682;2023-08-17T02:22:40;10.30;;;4.60;;
71610;SDS011;59459;51.172;6.682;2023-08-17T02:25:05;9.53;;;4.90;;
71610;SDS011;59459;51.172;6.682;2023-08-17T02:27:30;9.57;;;4.63;;
71610;SDS011;59459;51.172;6.682;2023-08-17T02:29:56;8.65;;;4.55;;
71610;SDS011;59459;51.172;6.682;2023-08-17T02:32:21;10.57;;;4.60;;
71610;SDS011;59459;51.172;6.682;2023-08-17T02:34:46;9.27;;;5.03;;
71610;SDS011;59459;51.172;6.682;2023-08-17T02:37:12;9.30;;;5.30;;
71610;SDS011;59459;51.172;6.682;2023-08-17T02:39:37;11.70;;;4.70;;
71610;SDS011;59459;51.172;6.682;2023-08-17T02:42:02;9.20;;;5.23;;
71610;SDS011;59459;51.172;6.682;2023-08-17T02:44:27;8.97;;;4.27;;
71610;SDS011;59459;51.172;6.682;2023-08-17T02:46:53;11.13;;;4.57;;
71610;SDS011;59459;51.172;6.682;2023-08-17T02:49:18;9.53;;;5.03;;
71610;SDS011;59459;51.172;6.682;2023-08-17T02:51:45;9.55;;;4.72;;
71610;SDS011;59459;51.172;6.682;2023-08-17T02:54:10;10.00;;;5.03;;
71610;SDS011;59459;51.172;6.682;2023-08-17T02:56:35;9.47;;;5.43;;
71610;SDS011;59459;51.172;6.682;2023-08-17T02:59:01;10.97;;;5.07;;
71610;SDS011;59459;51.172;6.682;2023-08-17T03:01:26;11.03;;;4.87;;
71610;SDS011;59459;51.172;6.682;2023-08-17T03:03:54;8.57;;;4.75;;
71610;SDS011;59459;51.172;6.682;2023-08-17T03:06:20;8.40;;;4.67;;
71610;SDS011;59459;51.172;6.682;2023-08-17T03:08:45;10.37;;;4.77;;
71610;SDS011;59459;51.172;6.682;2023-08-17T03:11:10;7.93;;;4.20;;
71610;SDS011;59459;51.172;6.682;2023-08-17T03:13:35;10.30;;;4.80;;
71610;SDS011;59459;51.172;6.682;2023-08-17T03:16:00;9.43;;;4.67;;
71610;SDS011;59459;51.172;6.682;2023-08-17T03:18:26;8.40;;;4.20;;
71610;SDS011;59459;51.172;6.682;2023-08-17T03:20:51;11.70;;;5.20;;
71610;SDS011;59459;51.172;6.682;2023-08-17T03:23:16;8.90;;;4.30;;
71610;SDS011;59459;51.172;6.682;2023-08-17T03:25:41;8.80;;;4.73;;
71610;SDS011;59459;51.172;6.682;2023-08-17T03:28:06;10.67;;;5.30;;
71610;SDS011;59459;51.172;6.682;2023-08-17T03:30:32;11.80;;;5.23;;
71610;SDS011;59459;51.172;6.682;2023-08-17T03:32:57;10.37;;;4.83;;
71610;SDS011;59459;51.172;6.682;2023-08-17T03:35:22;10.70;;;5.40;;
71610;SDS011;59459;51.172;6.682;2023-08-17T03:37:47;9.50;;;5.27;;
71610;SDS011;59459;51.172;6.682;2023-08-17T03:40:12;10.10;;;5.20;;
71610;SDS011;59459;51.172;6.682;2023-08-17T03:42:38;11.43;;;6.17;;
71610;SDS011;59459;51.172;6.682;2023-08-17T03:45:03;11.63;;;6.07;;
71610;SDS011;59459;51.172;6.682;2023-08-17T03:47:29;12.40;;;5.93;;
71610;SDS011;59459;51.172;6.682;2023-08-17T03:49:54;13.10;;;5.57;;
71610;SDS011;59459;51.172;6.682;2023-08-17T03:52:19;11.83;;;5.40;;
71610;SDS011;59459;51.172;6.682;2023-08-17T03:54:44;11.77;;;5.80;;
71610;SDS011;59459;51.172;6.682;2023-08-17T03:57:10;11.57;;;5.17;;
71610;SDS011;59459;51.172;6.682;2023-08-17T03:59:35;9.67;;;5.13;;
71610;SDS011;59459;51.172;6.682;2023-08-17T04:02:00;12.13;;;5.67;;
71610;SDS011;59459;51.172;6.682;2023-08-17T04:04:25;12.50;;;6.27;;
71610;SDS011;59459;51.172;6.682;2023-08-17T04:06:53;11.10;;;6.60;;
71610;SDS011;59459;51.172;6.682;2023-08-17T04:09:19;13.48;;;6.50;;
71610;SDS011;59459;51.172;6.682;2023-08-17T04:11:44;16.63;;;6.90;;
71610;SDS011;59459;51.172;6.682;2023-08-17T04:14:09;12.00;;;6.17;;
71610;SDS011;59459;51.172;6.682;2023-08-17T04:16:34;11.47;;;5.70;;
71610;SDS011;59459;51.172;6.682;2023-08-17T04:19:00;15.43;;;6.53;;
71610;SDS011;59459;51.172;6.682;2023-08-17T04:21:25;15.47;;;7.00;;
71610;SDS011;59459;51.172;6.682;2023-08-17T04:23:50;15.37;;;6.77;;
71610;SDS011;59459;51.172;6.682;2023-08-17T04:26:15;11.70;;;6.20;;
71610;SDS011;59459;51.172;6.682;2023-08-17T04:28:41;12.83;;;6.47;;
71610;SDS011;59459;51.172;6.682;2023-08-17T04:31:06;14.00;;;6.43;;
71610;SDS011;59459;51.172;6.682;2023-08-17T04:33:31;13.13;;;6.07;;
71610;SDS011;59459;51.172;6.682;2023-08-17T04:35:56;14.57;;;6.50;;
71610;SDS011;59459;51.172;6.682;2023-08-17T04:38:23;12.48;;;6.68;;
71610;SDS011;59459;51.172;6.682;2023-08-17T04:40:49;13.97;;;6.60;;
71610;SDS011;59459;51.172;6.682;2023-08-17T04:43:14;14.80;;;6.93;;
71610;SDS011;59459;51.172;6.682;2023-08-17T04:45:39;17.27;;;7.47;;
71610;SDS011;59459;51.172;6.682;2023-08-17T04:48:05;15.13;;;6.90;;
71610;SDS011;59459;51.172;6.682;2023-08-17T04:50:30;13.70;;;7.47;;
71610;SDS011;59459;51.172;6.682;2023-08-17T04:52:56;13.30;;;7.43;;
71610;SDS011;59459;51.172;6.682;2023-08-17T04:55:21;15.70;;;6.57;;
71610;SDS011;59459;51.172;6.682;2023-08-17T04:57:46;16.43;;;6.60;;
71610;SDS011;59459;51.172;6.682;2023-08-17T05:00:12;14.87;;;7.07;;
71610;SDS011;59459;51.172;6.682;2023-08-17T05:02:38;14.98;;;7.53;;
71610;SDS011;59459;51.172;6.682;2023-08-17T05:05:04;13.57;;;7.03;;
71610;SDS011;59459;51.172;6.682;2023-08-17T05:07:30;14.23;;;7.75;;
71610;SDS011;59459;51.172;6.682;2023-08-17T05:09:55;19.23;;;8.07;;
71610;SDS011;59459;51.172;6.682;2023-08-17T05:12:20;16.77;;;8.03;;
71610;SDS011;59459;51.172;6.682;2023-08-17T05:14:45;21.90;;;8.63;;
71610;SDS011;59459;51.172;6.682;2023-08-17T05:17:11;18.17;;;8.43;;
71610;SDS011;59459;51.172;6.682;2023-08-17T05:19:36;16.87;;;8.47;;
71610;SDS011;59459;51.172;6.682;2023-08-17T05:22:03;16.75;;;8.57;;
71610;SDS011;59459;51.172;6.682;2023-08-17T05:24:28;19.17;;;7.97;;
71610;SDS011;59459;51.172;6.682;2023-08-17T05:26:53;19.77;;;8.83;;
71610;SDS011;59459;51.172;6.682;2023-08-17T05:29:19;20.43;;;9.70;;
71610;SDS011;59459;51.172;6.682;2023-08-17T05:31:44;19.03;;;8.97;;
71610;SDS011;59459;51.172;6.682;2023-08-17T05:34:09;20.97;;;9.90;;
71610;SDS011;59459;51.172;6.682;2023-08-17T05:36:34;18.43;;;9.73;;
71610;SDS011;59459;51.172;6.682;2023-08-17T05:39:00;19.20;;;9.97;;
71610;SDS011;59459;51.172;6.682;2023-08-17T05:41:25;17.50;;;8.63;;
71610;SDS011;59459;51.172;6.682;2023-08-17T05:43:50;18.47;;;9.57;;
71610;SDS011;59459;51.172;6.682;2023-08-17T05:46:15;20.07;;;9.03;;
71610;SDS011;59459;51.172;6.682;2023-08-17T05:48:40;19.03;;;8.50;;
71610;SDS011;59459;51.172;6.682;2023-08-17T05:51:06;16.85;;;8.07;;
71610;SDS011;59459;51.172;6.682;2023-08-17T05:53:31;16.97;;;8.33;;
71610;SDS011;59459;51.172;6.682;2023-08-17T05:55:56;18.23;;;9.47;;
71610;SDS011;59459;51.172;6.682;2023-08-17T05:58:22;21.50;;;10.30;;
71610;SDS011;59459;51.172;6.682;2023-08-17T06:00:47;19.33;;;9.33;;
71610;SDS011;59459;51.172;6.682;2023-08-17T06:03:12;16.97;;;8.80;;
71610;SDS011;59459;51.172;6.682;2023-08-17T06:05:37;18.93;;;9.17;;
71610;SDS011;59459;51.172;6.682;2023-08-17T06:08:03;17.83;;;9.20;;
71610;SDS011;59459;51.172;6.682;2023-08-17T06:10:28;17.43;;;9.07;;
71610;SDS011;59459;51.172;6.682;2023-08-17T06:12:53;16.20;;;9.03;;
71610;SDS011;59459;51.172;6.682;2023-08-17T06:15:19;17.50;;;8.82;;
71610;SDS011;59459;51.172;6.682;2023-08-17T06:17:44;16.50;;;8.87;;
71610;SDS011;59459;51.172;6.682;2023-08-17T06:20:10;19.33;;;9.20;;
71610;SDS011;59459;51.172;6.682;2023-08-17T06:22:35;15.67;;;8.57;;
71610;SDS011;59459;51.172;6.682;2023-08-17T06:25:00;20.45;;;9.90;;
71610;SDS011;59459;51.172;6.682;2023-08-17T06:27:26;20.00;;;9.90;;
71610;SDS011;59459;51.172;6.682;2023-08-17T06:29:51;19.27;;;8.20;;
71610;SDS011;59459;51.172;6.682;2023-08-17T06:32:16;18.50;;;8.53;;
71610;SDS011;59459;51.172;6.682;2023-08-17T06:34:41;15.87;;;8.40;;
71610;SDS011;59459;51.172;6.682;2023-08-17T06:37:07;14.97;;;7.93;;
71610;SDS011;59459;51.172;6.682;2023-08-17T06:39:32;18.07;;;7.60;;
71610;SDS011;59459;51.172;6.682;2023-08-17T06:41:58;17.83;;;8.93;;
71610;SDS011;59459;51.172;6.682;2023-08-17T06:44:23;16.33;;;7.70;;
71610;SDS011;59459;51.172;6.682;2023-08-17T06:46:48;16.40;;;8.47;;
71610;SDS011;59459;51.172;6.682;2023-08-17T06:49:13;22.37;;;10.20;;
71610;SDS011;59459;51.172;6.682;2023-08-17T06:51:39;21.57;;;9.87;;
71610;SDS011;59459;51.172;6.682;2023-08-17T06:54:04;19.60;;;8.90;;
71610;SDS011;59459;51.172;6.682;2023-08-17T06:56:30;19.75;;;9.48;;
71610;SDS011;59459;51.172;6.682;2023-08-17T06:58:55;19.50;;;9.37;;
71610;SDS011;59459;51.172;6.682;2023-08-17T07:01:21;16.70;;;9.27;;
71610;SDS011;59459;51.172;6.682;2023-08-17T07:03:46;19.80;;;10.43;;
71610;SDS011;59459;51.172;6.682;2023-08-17T07:06:12;19.58;;;10.73;;
71610;SDS011;59459;51.172;6.682;2023-08-17T07:08:37;20.70;;;9.27;;
71610;SDS011;59459;51.172;6.682;2023-08-17T07:11:03;18.83;;;8.73;;
71610;SDS011;59459;51.172;6.682;2023-08-17T07:13:30;22.35;;;10.27;;
71610;SDS011;59459;51.172;6.682;2023-08-17T07:15:55;18.10;;;8.93;;
71610;SDS011;59459;51.172;6.682;2023-08-17T07:18:21;21.00;;;9.00;;
71610;SDS011;59459;51.172;6.682;2023-08-17T07:20:46;19.07;;;9.27;;
71610;SDS011;59459;51.172;6.682;2023-08-17T07:23:11;19.20;;;9.93;;
71610;SDS011;59459;51.172;6.682;2023-08-17T07:25:36;20.90;;;9.60;;
71610;SDS011;59459;51.172;6.682;2023-08-17T07:28:01;19.13;;;9.27;;
71610;SDS011;59459;51.172;6.682;2023-08-17T07:30:27;16.23;;;8.47;;
71610;SDS011;59459;51.172;6.682;2023-08-17T07:32:52;18.63;;;8.77;;
71610;SDS011;59459;51.172;6.682;2023-08-17T07:35:18;19.02;;;9.05;;
71610;SDS011;59459;51.172;6.682;2023-08-17T07:37:43;16.87;;;9.63;;
71610;SDS011;59459;51.172;6.682;2023-08-17T07:40:08;18.23;;;9.00;;
71610;SDS011;59459;51.172;6.682;2023-08-17T07:42:34;18.17;;;9.27;;
71610;SDS011;59459;51.172;6.682;2023-08-17T07:44:59;15.37;;;7.93;;
71610;SDS011;59459;51.172;6.682;2023-08-17T07:47:24;21.33;;;9.63;;
71610;SDS011;59459;51.172;6.682;2023-08-17T07:49:50;16.53;;;8.20;;
71610;SDS011;59459;51.172;6.682;2023-08-17T07:52:15;17.53;;;8.30;;
71610;SDS011;59459;51.172;6.682;2023-08-17T07:54:41;17.87;;;8.17;;
71610;SDS011;59459;51.172;6.682;2023-08-17T07:57:06;17.73;;;8.70;;
71610;SDS011;59459;51.172;6.682;2023-08-17T07:59:31;18.50;;;8.40;;
71610;SDS011;59459;51.172;6.682;2023-08-17T08:01:56;19.17;;;7.80;;
71610;SDS011;59459;51.172;6.682;2023-08-17T08:04:21;15.37;;;7.30;;
71610;SDS011;59459;51.172;6.682;2023-08-17T08:06:47;16.10;;;8.50;;
71610;SDS011;59459;51.172;6.682;2023-08-17T08:09:12;15.83;;;7.97;;
71610;SDS011;59459;51.172;6.682;2023-08-17T08:11:37;15.93;;;7.93;;
71610;SDS011;59459;51.172;6.682;2023-08-17T08:14:02;16.80;;;8.17;;
71610;SDS011;59459;51.172;6.682;2023-08-17T08:16:28;21.53;;;8.93;;
71610;SDS011;59459;51.172;6.682;2023-08-17T08:18:55;22.10;;;9.55;;
71610;SDS011;59459;51.172;6.682;2023-08-17T08:21:20;19.80;;;8.90;;
71610;SDS011;59459;51.172;6.682;2023-08-17T08:23:46;19.10;;;8.93;;
71610;SDS011;59459;51.172;6.682;2023-08-17T08:26:11;18.13;;;9.67;;
71610;SDS011;59459;51.172;6.682;2023-08-17T08:28:36;21.73;;;9.70;;
71610;SDS011;59459;51.172;6.682;2023-08-17T08:31:02;19.30;;;9.07;;
71610;SDS011;59459;51.172;6.682;2023-08-17T08:33:28;19.52;;;9.55;;
71610;SDS011;59459;51.172;6.682;2023-08-17T08:35:53;19.63;;;9.00;;
71610;SDS011;59459;51.172;6.682;2023-08-17T08:38:18;24.30;;;9.90;;
71610;SDS011;59459;51.172;6.682;2023-08-17T08:40:43;20.33;;;10.40;;
71610;SDS011;59459;51.172;6.682;2023-08-17T08:43:11;26.33;;;10.30;;
71610;SDS011;59459;51.172;6.682;2023-08-17T08:45:36;20.97;;;9.90;;
71610;SDS011;59459;51.172;6.682;2023-08-17T08:48:03;23.27;;;9.55;;
71610;SDS011;59459;51.172;6.682;2023-08-17T08:50:30;22.53;;;10.57;;
71610;SDS011;59459;51.172;6.682;2023-08-17T08:53:00;20.00;;;9.52;;
71610;SDS011;59459;51.172;6.682;2023-08-17T08:55:35;18.23;;;10.30;;
71610;SDS011;59459;51.172;6.682;2023-08-17T08:58:02;20.70;;;10.20;;
71610;SDS011;59459;51.172;6.682;2023-08-17T09:00:27;20.73;;;10.37;;
71610;SDS011;59459;51.172;6.682;2023-08-17T09:02:53;22.80;;;11.15;;
71610;SDS011;59459;51.172;6.682;2023-08-17T09:05:18;23.97;;;11.90;;
71610;SDS011;59459;51.172;6.682;2023-08-17T09:07:44;23.00;;;11.57;;
71610;SDS011;59459;51.172;6.682;2023-08-17T09:10:10;22.65;;;10.25;;
71610;SDS011;59459;51.172;6.682;2023-08-17T09:12:35;20.93;;;9.03;;
71610;SDS011;59459;51.172;6.682;2023-08-17T09:15:00;18.27;;;9.50;;
71610;SDS011;59459;51.172;6.682;2023-08-17T09:17:26;19.47;;;9.37;;
71610;SDS011;59459;51.172;6.682;2023-08-17T09:19:51;21.65;;;9.45;;
71610;SDS011;59459;51.172;6.682;2023-08-17T09:22:23;19.97;;;10.60;;
71610;SDS011;59459;51.172;6.682;2023-08-17T09:24:49;21.77;;;9.65;;
71610;SDS011;59459;51.172;6.682;2023-08-17T09:27:14;22.33;;;10.37;;
71610;SDS011;59459;51.172;6.682;2023-08-17T09:29:40;20.90;;;10.33;;
71610;SDS011;59459;51.172;6.682;2023-08-17T09:32:07;20.48;;;9.10;;
71610;SDS011;59459;51.172;6.682;2023-08-17T09:34:32;16.93;;;9.27;;
71610;SDS011;59459;51.172;6.682;2023-08-17T09:37:04;18.77;;;8.67;;
71610;SDS011;59459;51.172;6.682;2023-08-17T09:39:29;20.15;;;9.75;;
71610;SDS011;59459;51.172;6.682;2023-08-17T09:41:55;17.92;;;9.23;;
71610;SDS011;59459;51.172;6.682;2023-08-17T09:44:20;18.37;;;8.67;;
71610;SDS011;59459;51.172;6.682;2023-08-17T09:46:46;20.43;;;8.47;;
71610;SDS011;59459;51.172;6.682;2023-08-17T09:49:11;18.47;;;10.17;;
71610;SDS011;59459;51.172;6.682;2023-08-17T09:51:36;19.57;;;8.57;;
71610;SDS011;59459;51.172;6.682;2023-08-17T09:54:01;20.47;;;9.57;;
71610;SDS011;59459;51.172;6.682;2023-08-17T09:56:26;20.13;;;10.20;;
71610;SDS011;59459;51.172;6.682;2023-08-17T09:58:52;18.83;;;7.80;;
71610;SDS011;59459;51.172;6.682;2023-08-17T10:01:17;17.50;;;9.10;;
71610;SDS011;59459;51.172;6.682;2023-08-17T10:03:43;19.63;;;9.25;;
71610;SDS011;59459;51.172;6.682;2023-08-17T10:06:15;19.92;;;9.23;;
71610;SDS011;59459;51.172;6.682;2023-08-17T10:08:43;20.13;;;8.93;;
71610;SDS011;59459;51.172;6.682;2023-08-17T10:11:10;20.83;;;10.10;;
71610;SDS011;59459;51.172;6.682;2023-08-17T10:13:41;19.77;;;8.88;;
71610;SDS011;59459;51.172;6.682;2023-08-17T10:16:24;18.38;;;9.20;;
71610;SDS011;59459;51.172;6.682;2023-08-17T10:18:54;19.38;;;9.07;;
71610;SDS011;59459;51.172;6.682;2023-08-17T10:21:27;20.20;;;9.07;;
71610;SDS011;59459;51.172;6.682;2023-08-17T10:23:53;18.40;;;8.87;;
71610;SDS011;59459;51.172;6.682;2023-08-17T10:26:18;19.40;;;8.45;;
71610;SDS011;59459;51.172;6.682;2023-08-17T10:28:44;18.50;;;8.93;;
71610;SDS011;59459;51.172;6.682;2023-08-17T10:31:10;21.05;;;10.35;;
71610;SDS011;59459;51.172;6.682;2023-08-17T10:33:35;17.50;;;7.93;;
71610;SDS011;59459;51.172;6.682;2023-08-17T10:36:01;19.07;;;8.13;;
71610;SDS011;59459;51.172;6.682;2023-08-17T10:38:26;18.83;;;8.15;;
71610;SDS011;59459;51.172;6.682;2023-08-17T10:41:07;21.60;;;9.77;;
71610;SDS011;59459;51.172;6.682;2023-08-17T10:43:33;20.00;;;8.80;;
71610;SDS011;59459;51.172;6.682;2023-08-17T10:46:09;18.17;;;8.07;;
71610;SDS011;59459;51.172;6.682;2023-08-17T10:48:39;19.15;;;8.20;;
71610;SDS011;59459;51.172;6.682;2023-08-17T10:51:08;18.05;;;8.55;;
71610;SDS011;59459;51.172;6.682;2023-08-17T10:53:38;19.65;;;8.45;;
71610;SDS011;59459;51.172;6.682;2023-08-17T10:56:07;15.82;;;7.65;;
71610;SDS011;59459;51.172;6.682;2023-08-17T10:58:34;17.80;;;7.77;;
71610;SDS011;59459;51.172;6.682;2023-08-17T11:00:59;16.30;;;7.17;;
71610;SDS011;59459;51.172;6.682;2023-08-17T11:03:24;17.20;;;8.00;;
71610;SDS011;59459;51.172;6.682;2023-08-17T11:05:50;17.02;;;7.20;;
71610;SDS011;59459;51.172;6.682;2023-08-17T11:13:33;13.88;;;6.85;;
71610;SDS011;59459;51.172;6.682;2023-08-17T11:15:59;14.38;;;7.50;;
71610;SDS011;59459;51.172;6.682;2023-08-17T11:18:24;18.40;;;8.35;;
71610;SDS011;59459;51.172;6.682;2023-08-17T11:20:50;16.80;;;8.63;;
71610;SDS011;59459;51.172;6.682;2023-08-17T11:23:15;16.53;;;8.67;;
71610;SDS011;59459;51.172;6.682;2023-08-17T11:25:41;18.37;;;9.07;;
71610;SDS011;59459;51.172;6.682;2023-08-17T11:28:06;18.42;;;8.65;;
71610;SDS011;59459;51.172;6.682;2023-08-17T11:30:33;21.52;;;9.70;;
71610;SDS011;59459;51.172;6.682;2023-08-17T11:33:00;19.93;;;9.30;;
71610;SDS011;59459;51.172;6.682;2023-08-17T11:35:25;20.27;;;9.73;;
71610;SDS011;59459;51.172;6.682;2023-08-17T11:37:51;18.90;;;8.73;;
71610;SDS011;59459;51.172;6.682;2023-08-17T11:40:16;18.07;;;8.03;;
71610;SDS011;59459;51.172;6.682;2023-08-17T11:42:42;19.13;;;9.17;;
71610;SDS011;59459;51.172;6.682;2023-08-17T11:45:08;17.70;;;8.85;;
71610;SDS011;59459;51.172;6.682;2023-08-17T11:47:39;20.15;;;9.43;;
71610;SDS011;59459;51.172;6.682;2023-08-17T11:50:05;22.07;;;9.13;;
71610;SDS011;59459;51.172;6.682;2023-08-17T11:52:31;18.60;;;9.02;;
71610;SDS011;59459;51.172;6.682;2023-08-17T11:54:59;19.50;;;9.27;;
71610;SDS011;59459;51.172;6.682;2023-08-17T11:57:25;19.40;;;9.02;;
71610;SDS011;59459;51.172;6.682;2023-08-17T11:59:53;18.83;;;8.30;;
71610;SDS011;59459;51.172;6.682;2023-08-17T12:02:20;19.27;;;9.40;;
71610;SDS011;59459;51.172;6.682;2023-08-17T12:04:45;18.10;;;7.53;;
71610;SDS011;59459;51.172;6.682;2023-08-17T12:07:10;18.03;;;8.37;;
71610;SDS011;59459;51.172;6.682;2023-08-17T12:09:36;16.73;;;7.80;;
71610;SDS011;59459;51.172;6.682;2023-08-17T12:12:01;17.47;;;8.07;;
71610;SDS011;59459;51.172;6.682;2023-08-17T12:14:29;16.37;;;8.47;;
71610;SDS011;59459;51.172;6.682;2023-08-17T12:16:55;17.17;;;8.60;;
71610;SDS011;59459;51.172;6.682;2023-08-17T12:19:20;17.23;;;8.83;;
71610;SDS011;59459;51.172;6.682;2023-08-17T12:21:47;14.70;;;7.73;;
71610;SDS011;59459;51.172;6.682;2023-08-17T12:24:13;16.83;;;8.07;;
71610;SDS011;59459;51.172;6.682;2023-08-17T12:26:48;17.33;;;8.30;;
71610;SDS011;59459;51.172;6.682;2023-08-17T12:29:14;20.67;;;8.50;;
71610;SDS011;59459;51.172;6.682;2023-08-17T12:31:39;14.37;;;7.63;;
71610;SDS011;59459;51.172;6.682;2023-08-17T12:34:04;14.13;;;8.10;;
71610;SDS011;59459;51.172;6.682;2023-08-17T12:36:31;13.82;;;7.50;;
71610;SDS011;59459;51.172;6.682;2023-08-17T12:38:56;12.45;;;6.35;;
71610;SDS011;59459;51.172;6.682;2023-08-17T12:41:21;13.53;;;7.10;;
71610;SDS011;59459;51.172;6.682;2023-08-17T12:43:46;15.47;;;6.47;;
71610;SDS011;59459;51.172;6.682;2023-08-17T12:46:12;16.00;;;7.07;;
71610;SDS011;59459;51.172;6.682;2023-08-17T12:48:40;12.43;;;6.23;;
71610;SDS011;59459;51.172;6.682;2023-08-17T12:51:05;14.48;;;6.93;;
71610;SDS011;59459;51.172;6.682;2023-08-17T12:53:30;13.93;;;6.83;;
71610;SDS011;59459;51.172;6.682;2023-08-17T12:55:55;14.43;;;7.00;;
71610;SDS011;59459;51.172;6.682;2023-08-17T12:58:21;16.73;;;7.83;;
71610;SDS011;59459;51.172;6.682;2023-08-17T13:00:46;15.20;;;7.80;;
71610;SDS011;59459;51.172;6.682;2023-08-17T13:03:11;16.17;;;7.13;;
71610;SDS011;59459;51.172;6.682;2023-08-17T13:05:36;12.90;;;6.43;;
71610;SDS011;59459;51.172;6.682;2023-08-17T13:08:02;15.50;;;7.00;;
71610;SDS011;59459;51.172;6.682;2023-08-17T13:10:27;14.13;;;7.20;;
71610;SDS011;59459;51.172;6.682;2023-08-17T13:12:52;16.50;;;7.20;;
71610;SDS011;59459;51.172;6.682;2023-08-17T13:15:20;14.38;;;7.47;;
71610;SDS011;59459;51.172;6.682;2023-08-17T13:17:46;15.17;;;7.40;;
71610;SDS011;59459;51.172;6.682;2023-08-17T13:20:11;14.47;;;7.47;;
71610;SDS011;59459;51.172;6.682;2023-08-17T13:22:36;17.57;;;9.07;;
71610;SDS011;59459;51.172;6.682;2023-08-17T13:25:01;14.52;;;8.30;;
71610;SDS011;59459;51.172;6.682;2023-08-17T13:27:27;17.10;;;7.60;;
71610;SDS011;59459;51.172;6.682;2023-08-17T13:29:52;18.70;;;8.87;;
71610;SDS011;59459;51.172;6.682;2023-08-17T13:32:17;18.93;;;8.57;;
71610;SDS011;59459;51.172;6.682;2023-08-17T13:34:42;16.77;;;8.43;;
71610;SDS011;59459;51.172;6.682;2023-08-17T13:37:08;17.93;;;9.33;;
71610;SDS011;59459;51.172;6.682;2023-08-17T13:39:33;14.07;;;8.23;;
71610;SDS011;59459;51.172;6.682;2023-08-17T13:41:58;20.23;;;9.67;;
71610;SDS011;59459;51.172;6.682;2023-08-17T13:44:23;15.70;;;7.77;;
71610;SDS011;59459;51.172;6.682;2023-08-17T13:46:49;17.07;;;8.90;;
71610;SDS011;59459;51.172;6.682;2023-08-17T13:49:14;18.77;;;9.00;;
71610;SDS011;59459;51.172;6.682;2023-08-17T13:51:39;14.87;;;8.40;;
71610;SDS011;59459;51.172;6.682;2023-08-17T13:54:04;18.00;;;9.47;;
71610;SDS011;59459;51.172;6.682;2023-08-17T13:56:29;17.13;;;9.40;;
71610;SDS011;59459;51.172;6.682;2023-08-17T13:58:55;15.90;;;8.73;;
71610;SDS011;59459;51.172;6.682;2023-08-17T14:01:20;15.43;;;8.47;;
71610;SDS011;59459;51.172;6.682;2023-08-17T14:03:45;16.13;;;8.73;;
71610;SDS011;59459;51.172;6.682;2023-08-17T14:06:10;16.20;;;8.20;;
71610;SDS011;59459;51.172;6.682;2023-08-17T14:08:35;15.90;;;8.57;;
71610;SDS011;59459;51.172;6.682;2023-08-17T14:11:01;15.40;;;8.90;;
71610;SDS011;59459;51.172;6.682;2023-08-17T14:13:26;14.20;;;7.47;;
71610;SDS011;59459;51.172;6.682;2023-08-17T14:15:51;14.00;;;7.88;;
71610;SDS011;59459;51.172;6.682;2023-08-17T14:18:17;16.57;;;8.43;;
71610;SDS011;59459;51.172;6.682;2023-08-17T14:20:42;12.50;;;7.10;;
71610;SDS011;59459;51.172;6.682;2023-08-17T14:23:07;14.20;;;8.07;;
71610;SDS011;59459;51.172;6.682;2023-08-17T14:25:33;14.23;;;8.20;;
71610;SDS011;59459;51.172;6.682;2023-08-17T14:27:58;15.55;;;8.63;;
71610;SDS011;59459;51.172;6.682;2023-08-17T14:30:24;14.53;;;7.70;;
71610;SDS011;59459;51.172;6.682;2023-08-17T14:32:50;15.23;;;8.13;;
71610;SDS011;59459;51.172;6.682;2023-08-17T14:35:15;18.83;;;9.23;;